Time;durP1;ratioP1;P1;durP2;ratioP2;P2;SDS_P1;SDS_P2;PMS_P1;PMS_P2;Temp;Humidity;BMP_temperature;BMP_pressure;BME280_temperature;BME280_humidity;BME280_pressure;Samples;Min_cycle;Max_cycle;Signal;HPM_P1;HPM_P2
2024/01/28 00:00:46;;;;;;;10.43;5.73;;;0.40;99.90;;;;;;4194747;28;20497;-78
2024/01/28 00:02:51;;;;;;;13.37;5.30;;;0.40;99.90;;;;;;4195846;28;20998;-78
2024/01/28 00:04:54;;;;;;;17.20;5.83;;;0.40;99.90;;;;;;4214781;28;20452;-79
2024/01/28 00:06:56;;;;;;;11.27;5.37;;;0.40;99.90;;;;;;4215745;28;20998;-79
2024/01/28 00:08:58;;;;;;;16.83;5.47;;;0.30;99.90;;;;;;4197593;28;20249;-78
2024/01/28 00:11:00;;;;;;;17.10;5.30;;;0.40;99.90;;;;;;4213245;28;20486;-78
2024/01/28 00:13:04;;;;;;;15.07;5.70;;;0.30;99.90;;;;;;4214206;28;20482;-78
2024/01/28 00:15:10;;;;;;;15.73;6.13;;;0.20;99.90;;;;;;4209404;28;20449;-78
2024/01/28 00:17:11;;;;;;;16.37;6.33;;;0.20;99.90;;;;;;4211869;28;20451;-78
2024/01/28 00:19:13;;;;;;;19.37;5.90;;;0.40;99.90;;;;;;4196510;28;20532;-79
2024/01/28 00:21:15;;;;;;;15.93;5.93;;;0.30;99.90;;;;;;4210817;28;20255;-78
2024/01/28 00:23:16;;;;;;;17.70;6.60;;;0.30;99.90;;;;;;4214822;28;20448;-78
2024/01/28 00:25:21;;;;;;;18.70;6.03;;;0.30;99.90;;;;;;4214642;28;21113;-78
2024/01/28 00:27:23;;;;;;;17.93;5.97;;;0.20;99.90;;;;;;4226129;28;20475;-79
2024/01/28 00:29:28;;;;;;;15.30;5.90;;;1.20;99.90;;;;;;4224470;28;20482;-79
2024/01/28 00:31:30;;;;;;;22.93;6.50;;;0.20;99.90;;;;;;4224478;28;20561;-79
2024/01/28 00:33:32;;;;;;;12.27;5.67;;;0.80;99.90;;;;;;4220237;28;20456;-78
2024/01/28 00:35:34;;;;;;;18.93;6.27;;;0.10;99.90;;;;;;4216117;28;20501;-79
2024/01/28 00:37:36;;;;;;;14.97;6.53;;;0.10;99.90;;;;;;4209495;28;20450;-79
2024/01/28 00:39:38;;;;;;;13.13;5.23;;;0.00;99.90;;;;;;4208798;28;20492;-79
2024/01/28 00:41:40;;;;;;;13.60;5.73;;;0.00;99.90;;;;;;4195926;28;20523;-79
2024/01/28 00:43:41;;;;;;;12.00;5.20;;;0.00;99.90;;;;;;4210756;28;20446;-79
2024/01/28 00:45:45;;;;;;;15.47;5.90;;;0.00;99.90;;;;;;4198437;28;20449;-79
2024/01/28 00:47:47;;;;;;;17.63;5.77;;;-0.10;99.90;;;;;;4192230;28;20724;-79
2024/01/28 00:49:50;;;;;;;16.07;5.93;;;-0.10;99.90;;;;;;4214740;28;20532;-79
2024/01/28 00:51:52;;;;;;;14.87;5.60;;;-0.10;99.90;;;;;;4214049;28;20555;-78
2024/01/28 00:53:54;;;;;;;14.27;5.73;;;-0.10;99.90;;;;;;4210469;28;20500;-79
2024/01/28 00:55:55;;;;;;;19.63;6.83;;;-0.10;99.90;;;;;;4211544;28;20446;-78
2024/01/28 00:57:58;;;;;;;15.97;6.20;;;-0.10;99.90;;;;;;4213443;28;20566;-79
2024/01/28 01:00:00;;;;;;;15.70;5.70;;;1.10;99.90;;;;;;4212471;28;20461;-79
2024/01/28 01:02:03;;;;;;;13.27;6.00;;;-0.20;99.90;;;;;;4212769;28;20955;-78
2024/01/28 01:04:05;;;;;;;22.70;6.47;;;-0.20;99.90;;;;;;4194457;28;20858;-79
2024/01/28 01:06:07;;;;;;;12.83;5.57;;;-0.20;99.90;;;;;;4194533;28;20524;-79
2024/01/28 01:08:09;;;;;;;19.80;6.10;;;-0.20;99.90;;;;;;4194035;28;21055;-79
2024/01/28 01:10:11;;;;;;;19.43;6.40;;;-0.20;99.90;;;;;;4211879;28;20451;-79
2024/01/28 01:12:13;;;;;;;17.47;6.50;;;-0.20;99.90;;;;;;4212491;28;20509;-79
2024/01/28 01:14:14;;;;;;;21.67;6.23;;;-0.20;99.90;;;;;;4212113;28;20466;-78
2024/01/28 01:16:16;;;;;;;11.47;6.00;;;-0.20;99.90;;;;;;4213228;28;20816;-78
2024/01/28 01:18:20;;;;;;;16.50;6.23;;;-0.20;99.90;;;;;;4190724;28;20243;-78
2024/01/28 01:20:22;;;;;;;15.67;5.70;;;-0.20;99.90;;;;;;4212020;28;20523;-78
2024/01/28 01:22:24;;;;;;;12.03;5.60;;;-0.20;99.90;;;;;;4212534;28;20468;-79
2024/01/28 01:24:26;;;;;;;19.87;6.17;;;-0.30;99.90;;;;;;4209385;28;20985;-78
2024/01/28 01:26:28;;;;;;;13.23;6.10;;;-0.30;99.90;;;;;;4214561;28;20514;-78
2024/01/28 01:28:32;;;;;;;15.30;6.27;;;-0.30;99.90;;;;;;4215573;28;20501;-78
2024/01/28 01:30:34;;;;;;;14.83;5.23;;;-0.30;99.90;;;;;;4213929;28;20470;-78
2024/01/28 01:32:38;;;;;;;16.20;5.93;;;-0.40;99.90;;;;;;4215651;28;20458;-78
2024/01/28 01:34:41;;;;;;;23.63;6.37;;;-0.40;99.90;;;;;;4212089;28;20450;-79
2024/01/28 01:36:43;;;;;;;15.13;6.17;;;-0.50;99.90;;;;;;4203817;28;20856;-79
2024/01/28 01:38:45;;;;;;;16.30;6.27;;;-0.40;99.90;;;;;;4198748;28;20470;-79
2024/01/28 01:40:46;;;;;;;14.33;5.77;;;-0.50;99.90;;;;;;4212297;28;20952;-79
2024/01/28 01:42:47;;;;;;;15.70;6.17;;;-0.40;99.90;;;;;;4212042;28;20454;-79
2024/01/28 01:44:49;;;;;;;18.23;6.03;;;-0.60;99.90;;;;;;4213466;28;20526;-79
2024/01/28 01:46:51;;;;;;;16.07;5.83;;;-0.60;99.90;;;;;;4190787;28;20288;-79
2024/01/28 01:48:54;;;;;;;15.03;5.87;;;-0.60;99.90;;;;;;4212761;28;20481;-78
2024/01/28 01:51:07;;;;;;;19.67;6.23;;;-0.60;99.90;;;;;;4214300;28;20511;-79
2024/01/28 01:53:10;;;;;;;15.73;5.17;;;-0.20;99.90;;;;;;4211482;28;20459;-78
2024/01/28 01:55:13;;;;;;;15.67;6.67;;;-0.60;99.90;;;;;;4212158;28;20474;-79
2024/01/28 01:57:17;;;;;;;19.90;6.20;;;-0.70;99.90;;;;;;4191879;28;20443;-79
2024/01/28 01:59:20;;;;;;;17.03;5.20;;;-0.70;99.90;;;;;;4211065;28;20476;-79
2024/01/28 02:01:23;;;;;;;15.97;5.73;;;-0.70;99.90;;;;;;4211840;28;20454;-79
2024/01/28 02:03:26;;;;;;;14.90;6.10;;;-0.70;99.90;;;;;;4191832;28;20474;-78
2024/01/28 02:05:31;;;;;;;18.23;6.47;;;-0.70;99.90;;;;;;4209771;28;20445;-79
2024/01/28 02:07:34;;;;;;;17.00;5.77;;;-0.70;99.90;;;;;;4212704;28;20522;-79
2024/01/28 02:09:36;;;;;;;22.23;6.50;;;-0.80;99.90;;;;;;4212076;28;20518;-79
2024/01/28 02:11:38;;;;;;;16.57;5.80;;;-0.50;99.90;;;;;;4211139;28;20583;-79
2024/01/28 02:13:40;;;;;;;19.17;6.20;;;-0.80;99.90;;;;;;4208422;28;20461;-79
2024/01/28 02:15:43;;;;;;;13.93;5.90;;;-0.10;99.90;;;;;;4203544;28;20448;-78
2024/01/28 02:17:45;;;;;;;15.83;5.30;;;-0.80;99.90;;;;;;4211541;28;20479;-79
2024/01/28 02:19:47;;;;;;;14.67;6.20;;;-0.80;99.90;;;;;;4193946;28;21045;-79
2024/01/28 02:21:49;;;;;;;15.00;6.03;;;-0.80;99.90;;;;;;4193812;28;20994;-79
2024/01/28 02:23:52;;;;;;;14.60;6.10;;;-0.80;99.90;;;;;;4206871;28;20448;-79
2024/01/28 02:25:54;;;;;;;13.47;5.50;;;-0.80;99.90;;;;;;4211633;28;20503;-79
2024/01/28 02:27:57;;;;;;;14.40;5.47;;;-0.80;99.90;;;;;;4190525;28;20452;-78
2024/01/28 02:29:58;;;;;;;20.00;5.83;;;-0.90;99.90;;;;;;4182534;28;20474;-80
2024/01/28 02:32:00;;;;;;;22.40;6.63;;;0.00;99.90;;;;;;4206961;28;20981;-77
2024/01/28 02:34:02;;;;;;;16.57;5.73;;;-0.90;99.90;;;;;;4211327;28;20959;-78
2024/01/28 02:36:05;;;;;;;14.97;5.90;;;-0.80;99.90;;;;;;4211074;28;20498;-77
2024/01/28 02:38:07;;;;;;;14.13;5.57;;;-0.90;99.90;;;;;;4209409;28;20478;-77
2024/01/28 02:40:12;;;;;;;16.13;5.80;;;-0.90;99.90;;;;;;4209576;28;20475;-78
2024/01/28 02:42:14;;;;;;;21.43;6.10;;;-0.80;99.90;;;;;;4213233;28;20493;-77
2024/01/28 02:44:16;;;;;;;15.57;5.90;;;0.10;99.90;;;;;;4211753;28;20474;-77
2024/01/28 02:46:18;;;;;;;13.00;5.70;;;-0.80;99.90;;;;;;4212345;28;20536;-78
2024/01/28 02:48:20;;;;;;;12.87;5.47;;;-0.80;99.90;;;;;;4207789;28;20467;-77
2024/01/28 02:50:22;;;;;;;17.30;5.83;;;-0.80;99.90;;;;;;4207948;28;20458;-77
2024/01/28 02:52:23;;;;;;;19.00;6.83;;;-0.80;99.90;;;;;;4208839;28;20517;-77
2024/01/28 02:54:25;;;;;;;24.87;5.57;;;-0.80;99.90;;;;;;4211986;28;20456;-78
2024/01/28 02:56:31;;;;;;;17.87;6.03;;;-0.90;99.90;;;;;;4188876;28;20455;-81
2024/01/28 02:58:34;;;;;;;20.73;5.70;;;-0.90;99.90;;;;;;4212367;28;20465;-79
2024/01/28 03:00:36;;;;;;;19.10;5.53;;;-0.90;99.90;;;;;;4211303;28;20998;-78
2024/01/28 03:02:40;;;;;;;16.77;5.47;;;-0.90;99.90;;;;;;4211040;28;20449;-77
2024/01/28 03:04:42;;;;;;;13.23;5.00;;;-0.90;99.90;;;;;;4204378;28;20472;-77
2024/01/28 03:06:43;;;;;;;16.70;5.70;;;-0.90;99.90;;;;;;4207618;28;20456;-77
2024/01/28 03:08:45;;;;;;;14.23;5.87;;;-0.90;99.90;;;;;;4207417;28;20554;-77
2024/01/28 03:10:48;;;;;;;11.50;5.10;;;-0.90;99.90;;;;;;4210298;28;20292;-77
2024/01/28 03:12:51;;;;;;;14.50;4.80;;;-0.90;99.90;;;;;;4213842;28;20489;-78
2024/01/28 03:14:53;;;;;;;18.27;5.77;;;-0.90;99.90;;;;;;4220258;28;20440;-77
2024/01/28 03:16:55;;;;;;;17.53;5.50;;;-0.90;99.90;;;;;;4194231;28;20482;-77
2024/01/28 03:18:57;;;;;;;14.90;5.33;;;-0.70;99.90;;;;;;4192255;28;20532;-78
2024/01/28 03:20:59;;;;;;;12.83;5.10;;;-0.90;99.90;;;;;;4209453;28;20524;-78
2024/01/28 03:23:01;;;;;;;17.73;5.70;;;-1.00;99.90;;;;;;4211179;28;20777;-78
2024/01/28 03:25:03;;;;;;;10.53;4.50;;;-1.00;99.90;;;;;;4213765;28;21009;-79
2024/01/28 03:27:05;;;;;;;20.47;5.80;;;-1.00;99.90;;;;;;4214327;28;20831;-77
2024/01/28 03:29:09;;;;;;;15.67;5.47;;;-1.00;99.90;;;;;;4212826;28;20508;-77
2024/01/28 03:31:11;;;;;;;18.13;5.47;;;-0.90;99.90;;;;;;4213380;28;20875;-77
2024/01/28 03:33:12;;;;;;;13.60;5.60;;;-1.00;99.90;;;;;;4196113;28;20811;-77
2024/01/28 03:35:15;;;;;;;13.60;5.63;;;-1.90;99.90;;;;;;4213622;28;20458;-79
2024/01/28 03:37:16;;;;;;;19.90;5.10;;;-1.00;99.90;;;;;;4211245;28;20953;-76
2024/01/28 03:39:18;;;;;;;17.70;5.50;;;-1.00;99.90;;;;;;4197441;28;20493;-77
2024/01/28 03:41:20;;;;;;;19.40;6.07;;;-1.00;99.90;;;;;;4214719;28;20457;-77
2024/01/28 03:43:21;;;;;;;20.47;6.30;;;-1.00;99.90;;;;;;4212410;28;20453;-77
2024/01/28 03:45:24;;;;;;;17.07;5.73;;;-1.00;99.90;;;;;;4214675;28;20936;-77
2024/01/28 03:47:25;;;;;;;16.53;5.67;;;-1.00;99.90;;;;;;4204913;28;20639;-78
2024/01/28 03:49:28;;;;;;;16.03;5.43;;;-1.00;99.90;;;;;;4213638;28;20489;-77
2024/01/28 03:51:30;;;;;;;18.00;5.73;;;-1.00;99.90;;;;;;4213313;28;20286;-78
2024/01/28 03:53:31;;;;;;;19.10;5.67;;;-1.00;99.90;;;;;;4215307;28;20477;-77
2024/01/28 03:55:33;;;;;;;15.13;6.03;;;-0.90;99.90;;;;;;4197675;28;20530;-76
2024/01/28 03:57:39;;;;;;;18.17;6.00;;;-0.90;99.90;;;;;;4211454;28;20443;-77
2024/01/28 03:59:41;;;;;;;13.57;6.07;;;-1.40;99.90;;;;;;4212051;28;20481;-77
2024/01/28 04:01:44;;;;;;;14.47;5.80;;;-1.00;99.90;;;;;;4195089;28;20814;-77
2024/01/28 04:03:45;;;;;;;25.90;6.20;;;-1.00;99.90;;;;;;4193828;28;20456;-76
2024/01/28 04:05:48;;;;;;;17.73;5.63;;;-1.00;99.90;;;;;;4217755;28;20486;-76
2024/01/28 04:07:49;;;;;;;17.30;5.30;;;-1.00;99.90;;;;;;4215389;28;20551;-77
2024/01/28 04:09:51;;;;;;;15.20;5.80;;;-1.00;99.90;;;;;;4210435;28;20506;-77
2024/01/28 04:11:52;;;;;;;14.73;6.07;;;-1.00;99.90;;;;;;4213083;28;20573;-77
2024/01/28 04:13:56;;;;;;;15.90;5.77;;;-1.00;99.90;;;;;;4190129;28;20460;-77
2024/01/28 04:15:56;;;;;;;21.97;5.93;;;-1.00;99.90;;;;;;4207362;28;20877;-77
2024/01/28 04:18:00;;;;;;;19.00;6.40;;;-1.00;99.90;;;;;;4192352;28;20432;-77
2024/01/28 04:20:05;;;;;;;19.47;5.73;;;-1.10;99.90;;;;;;4207583;28;20455;-79
2024/01/28 04:22:09;;;;;;;20.23;6.20;;;-1.10;99.90;;;;;;4211829;28;20438;-77
2024/01/28 04:24:11;;;;;;;13.43;5.20;;;-1.10;99.90;;;;;;4218190;28;20587;-77
2024/01/28 04:26:13;;;;;;;13.90;5.50;;;-1.10;99.90;;;;;;4195987;28;20486;-79
2024/01/28 04:28:15;;;;;;;15.23;5.60;;;-1.10;99.90;;;;;;4212772;28;20650;-79
2024/01/28 04:30:18;;;;;;;13.93;5.70;;;-1.20;99.90;;;;;;4196337;28;20512;-78
2024/01/28 04:32:23;;;;;;;18.63;5.53;;;-1.20;99.90;;;;;;4211560;28;20492;-78
2024/01/28 04:34:26;;;;;;;16.20;5.73;;;-1.20;99.90;;;;;;4216718;28;20502;-77
2024/01/28 04:36:28;;;;;;;25.93;6.30;;;-1.00;99.90;;;;;;4211384;28;20470;-77
2024/01/28 04:38:30;;;;;;;24.30;6.60;;;-1.20;99.90;;;;;;4195788;28;20610;-77
2024/01/28 04:40:32;;;;;;;17.50;6.10;;;-1.20;99.90;;;;;;4213513;28;20459;-78
2024/01/28 04:42:34;;;;;;;14.73;5.50;;;-1.20;99.90;;;;;;4216599;28;20449;-78
2024/01/28 04:44:36;;;;;;;12.33;5.40;;;-0.10;99.90;;;;;;4212826;28;20460;-78
2024/01/28 04:46:38;;;;;;;20.17;5.67;;;-0.40;99.90;;;;;;4211190;28;20447;-77
2024/01/28 04:48:41;;;;;;;13.40;5.60;;;-1.00;99.90;;;;;;4212107;28;21016;-78
2024/01/28 04:50:44;;;;;;;15.37;5.73;;;-1.20;99.90;;;;;;4210996;28;20448;-77
2024/01/28 04:52:46;;;;;;;16.40;5.13;;;-1.30;99.90;;;;;;4211986;28;20482;-77
2024/01/28 04:54:48;;;;;;;15.50;5.60;;;-1.30;99.90;;;;;;4194155;28;20826;-77
2024/01/28 04:56:50;;;;;;;13.33;5.97;;;-1.80;99.90;;;;;;4213897;28;20511;-79
2024/01/28 04:58:52;;;;;;;15.87;5.07;;;-0.80;99.90;;;;;;4212749;28;20470;-78
2024/01/28 05:00:54;;;;;;;13.93;5.80;;;-1.40;99.90;;;;;;4209667;28;20449;-78
2024/01/28 05:02:59;;;;;;;15.73;5.10;;;-1.30;99.90;;;;;;4212109;28;20488;-77
2024/01/28 05:05:01;;;;;;;16.60;6.00;;;-1.40;99.90;;;;;;4213502;28;20541;-77
2024/01/28 05:07:04;;;;;;;15.20;5.93;;;-1.30;99.90;;;;;;4216763;28;20442;-77
2024/01/28 05:09:10;;;;;;;20.73;6.40;;;-1.30;99.90;;;;;;4212197;28;20477;-78
2024/01/28 05:11:11;;;;;;;17.47;6.07;;;-1.40;99.90;;;;;;4211292;28;20445;-77
2024/01/28 05:13:15;;;;;;;17.77;5.57;;;-1.30;99.90;;;;;;4194917;28;20495;-78
2024/01/28 05:15:20;;;;;;;20.93;6.03;;;-1.30;99.90;;;;;;4217006;28;20222;-81
2024/01/28 05:17:21;;;;;;;17.00;6.63;;;-1.40;99.90;;;;;;4194569;28;20497;-77
2024/01/28 05:19:23;;;;;;;27.93;6.70;;;-1.30;99.90;;;;;;4214626;28;20473;-77
2024/01/28 05:21:24;;;;;;;18.00;7.03;;;-1.20;99.90;;;;;;4212954;28;20242;-77
2024/01/28 05:23:34;;;;;;;17.03;6.10;;;-1.10;99.90;;;;;;4214363;28;20793;-81
2024/01/28 05:25:36;;;;;;;18.30;6.13;;;-1.20;99.90;;;;;;4211843;28;20510;-77
2024/01/28 05:27:37;;;;;;;17.77;5.83;;;-1.20;99.90;;;;;;4193860;28;20995;-77
2024/01/28 05:29:39;;;;;;;18.47;6.60;;;-1.20;99.90;;;;;;4192856;28;20465;-78
2024/01/28 05:31:41;;;;;;;17.17;5.80;;;-1.20;99.90;;;;;;4211759;28;20536;-78
2024/01/28 05:33:45;;;;;;;14.43;5.70;;;-1.20;99.90;;;;;;4192437;28;20482;-76
2024/01/28 05:35:46;;;;;;;14.83;6.03;;;-1.20;99.90;;;;;;4212135;28;20441;-77
2024/01/28 05:37:48;;;;;;;15.53;5.50;;;-1.20;99.90;;;;;;4209822;28;20445;-79
2024/01/28 05:39:53;;;;;;;19.87;5.87;;;-1.20;99.90;;;;;;4210323;28;20464;-77
2024/01/28 05:41:55;;;;;;;15.50;6.00;;;-1.30;99.90;;;;;;4216325;28;20901;-78
2024/01/28 05:43:57;;;;;;;13.00;4.93;;;-1.30;99.90;;;;;;4214774;28;20438;-77
2024/01/28 05:45:59;;;;;;;15.20;5.57;;;-0.60;99.90;;;;;;4209303;28;20445;-78
2024/01/28 05:48:01;;;;;;;17.70;6.03;;;-1.30;99.90;;;;;;4207812;28;21101;-79
2024/01/28 05:50:04;;;;;;;15.33;5.03;;;-1.40;99.90;;;;;;4192930;28;20979;-78
2024/01/28 05:52:06;;;;;;;13.53;5.43;;;-1.40;99.90;;;;;;4199406;28;21041;-77
2024/01/28 05:54:08;;;;;;;19.90;5.97;;;-1.30;99.90;;;;;;4213297;28;20449;-77
2024/01/28 05:56:12;;;;;;;16.50;5.70;;;-0.80;99.90;;;;;;4211906;28;20465;-77
2024/01/28 05:58:14;;;;;;;17.20;5.70;;;-0.50;99.90;;;;;;4192886;28;20450;-78
2024/01/28 06:00:17;;;;;;;17.57;5.70;;;-1.30;99.90;;;;;;4210769;28;20499;-79
2024/01/28 06:02:18;;;;;;;15.33;5.80;;;-1.30;99.90;;;;;;4209847;28;20452;-77
2024/01/28 06:04:20;;;;;;;23.07;5.50;;;-1.40;99.90;;;;;;4208254;28;20506;-79
2024/01/28 06:06:22;;;;;;;20.93;5.70;;;-1.40;99.90;;;;;;4205865;28;20214;-76
2024/01/28 06:08:24;;;;;;;19.70;5.53;;;-1.40;99.90;;;;;;4212015;28;20505;-77
2024/01/28 06:10:26;;;;;;;13.27;5.80;;;-1.40;99.90;;;;;;4194793;28;20449;-78
2024/01/28 06:12:29;;;;;;;18.73;5.60;;;-1.40;99.90;;;;;;4210385;28;20485;-76
2024/01/28 06:14:30;;;;;;;15.80;5.60;;;-1.40;99.90;;;;;;4211196;28;20448;-77
2024/01/28 06:16:32;;;;;;;13.27;4.93;;;-1.30;99.90;;;;;;4194061;28;21150;-78
2024/01/28 06:18:35;;;;;;;12.97;5.30;;;-1.00;99.90;;;;;;4209821;28;20230;-76
2024/01/28 06:20:37;;;;;;;12.17;4.80;;;-0.70;99.90;;;;;;4208877;28;20862;-76
2024/01/28 06:22:38;;;;;;;10.17;5.10;;;-1.30;99.90;;;;;;4204772;28;20446;-78
2024/01/28 06:24:42;;;;;;;12.27;4.77;;;-1.40;99.90;;;;;;4209562;28;20476;-78
2024/01/28 06:26:44;;;;;;;14.83;5.20;;;-1.20;99.90;;;;;;4203976;28;20210;-77
2024/01/28 06:28:47;;;;;;;13.53;4.70;;;-1.40;99.90;;;;;;4208049;28;20528;-77
2024/01/28 06:30:49;;;;;;;17.77;5.13;;;-1.40;99.90;;;;;;4196021;28;20860;-78
2024/01/28 06:32:50;;;;;;;15.73;5.17;;;-1.40;99.90;;;;;;4206379;28;20474;-77
2024/01/28 06:34:52;;;;;;;19.30;5.37;;;-1.40;99.90;;;;;;4209410;28;20442;-77
2024/01/28 06:36:54;;;;;;;13.70;5.03;;;-1.40;99.90;;;;;;4215826;28;20202;-77
2024/01/28 06:38:57;;;;;;;17.30;4.93;;;-1.40;99.90;;;;;;4208009;28;20465;-77
2024/01/28 06:40:59;;;;;;;14.73;5.10;;;-1.40;99.90;;;;;;4210067;28;20460;-77
2024/01/28 06:43:01;;;;;;;16.83;5.37;;;-1.20;99.90;;;;;;4196437;28;20461;-78
2024/01/28 06:45:07;;;;;;;19.53;4.60;;;-0.50;99.90;;;;;;4209123;28;20456;-78
2024/01/28 06:47:09;;;;;;;17.07;4.67;;;-1.40;99.90;;;;;;4209823;28;20492;-77
2024/01/28 06:49:11;;;;;;;12.43;4.90;;;-1.20;99.90;;;;;;4200638;28;20560;-78
2024/01/28 06:51:13;;;;;;;15.67;5.30;;;-1.40;99.90;;;;;;4210010;28;20485;-79
2024/01/28 06:53:19;;;;;;;17.70;5.17;;;-1.40;99.90;;;;;;4218125;28;20475;-78
2024/01/28 06:55:21;;;;;;;17.57;4.90;;;-1.40;99.90;;;;;;4221882;28;20472;-79
2024/01/28 06:57:25;;;;;;;15.70;4.77;;;-1.40;99.90;;;;;;4198882;28;20545;-77
2024/01/28 06:59:27;;;;;;;21.07;5.17;;;-1.40;99.90;;;;;;4215497;28;20454;-78
2024/01/28 07:01:30;;;;;;;15.53;4.73;;;-1.40;99.90;;;;;;4212581;28;20449;-79
2024/01/28 07:03:32;;;;;;;17.73;4.83;;;-1.40;99.90;;;;;;4215928;28;20479;-79
2024/01/28 07:05:34;;;;;;;18.53;5.40;;;-1.40;99.90;;;;;;4209863;28;20456;-78
2024/01/28 07:07:36;;;;;;;15.83;4.50;;;-1.40;99.90;;;;;;4211296;28;20472;-78
2024/01/28 07:09:37;;;;;;;22.43;5.67;;;-1.40;99.90;;;;;;4214725;28;21015;-78
2024/01/28 07:11:39;;;;;;;14.37;4.20;;;-1.40;99.90;;;;;;4217611;28;20477;-78
2024/01/28 07:13:41;;;;;;;15.33;5.20;;;-1.40;99.90;;;;;;4214168;28;20484;-78
2024/01/28 07:15:42;;;;;;;15.80;4.13;;;-1.30;99.90;;;;;;4214811;28;20487;-78
2024/01/28 07:17:46;;;;;;;18.77;5.30;;;-1.30;99.90;;;;;;4198405;28;20458;-79
2024/01/28 07:19:48;;;;;;;11.17;4.90;;;-1.30;99.90;;;;;;4197638;28;20851;-78
2024/01/28 07:21:51;;;;;;;17.23;5.60;;;-1.20;99.90;;;;;;4214142;28;20495;-78
2024/01/28 07:23:53;;;;;;;13.63;4.93;;;-1.30;99.90;;;;;;4213712;28;20453;-78
2024/01/28 07:25:55;;;;;;;15.07;4.70;;;-1.30;99.90;;;;;;4217259;28;20476;-78
2024/01/28 07:27:56;;;;;;;14.57;5.50;;;-1.20;99.90;;;;;;4214550;28;20947;-78
2024/01/28 07:30:01;;;;;;;20.00;5.90;;;-1.20;99.90;;;;;;4216138;28;20913;-78
2024/01/28 07:32:03;;;;;;;19.80;6.47;;;-1.20;99.90;;;;;;4214851;28;20508;-78
2024/01/28 07:34:06;;;;;;;15.50;5.13;;;-1.20;99.90;;;;;;4211686;28;20862;-78
2024/01/28 07:36:08;;;;;;;15.23;4.73;;;-1.10;99.90;;;;;;4214740;28;20480;-78
2024/01/28 07:38:10;;;;;;;16.00;4.60;;;-1.10;99.90;;;;;;4210059;28;20448;-79
2024/01/28 07:40:12;;;;;;;14.60;5.07;;;-1.10;99.90;;;;;;4192416;28;20448;-79
2024/01/28 07:42:14;;;;;;;13.23;4.70;;;-1.10;99.90;;;;;;4213155;28;20466;-79
2024/01/28 07:44:16;;;;;;;12.40;4.27;;;-1.00;99.90;;;;;;4195688;28;20458;-78
2024/01/28 07:46:19;;;;;;;16.37;5.03;;;-1.00;99.90;;;;;;4209136;28;20598;-78
2024/01/28 07:48:21;;;;;;;11.67;4.60;;;-1.00;99.90;;;;;;4218331;28;20495;-77
2024/01/28 07:50:24;;;;;;;10.97;4.67;;;-1.00;99.90;;;;;;4214055;28;20530;-77
2024/01/28 07:52:25;;;;;;;12.17;4.30;;;-1.00;99.90;;;;;;4213640;28;20451;-78
2024/01/28 07:54:27;;;;;;;10.97;4.27;;;-0.80;99.90;;;;;;4210864;28;20483;-78
2024/01/28 07:56:29;;;;;;;23.23;5.20;;;-0.90;99.90;;;;;;4213937;28;20505;-79
2024/01/28 07:58:31;;;;;;;15.47;4.90;;;-0.20;99.90;;;;;;4216358;28;20463;-79
2024/01/28 08:00:35;;;;;;;12.03;4.50;;;-0.80;99.90;;;;;;4213813;28;20439;-79
2024/01/28 08:02:40;;;;;;;9.27;4.87;;;-0.40;99.90;;;;;;4213950;28;21027;-76
2024/01/28 08:04:41;;;;;;;14.43;4.63;;;-0.70;99.90;;;;;;4206499;28;20779;-78
2024/01/28 08:06:44;;;;;;;11.67;4.47;;;-0.70;99.90;;;;;;4212644;28;20946;-78
2024/01/28 08:08:46;;;;;;;17.53;5.03;;;-0.30;99.90;;;;;;4193288;28;20540;-81
2024/01/28 08:10:49;;;;;;;16.77;4.67;;;-0.60;99.90;;;;;;4216403;28;20539;-79
2024/01/28 08:12:51;;;;;;;21.23;4.67;;;0.10;99.90;;;;;;4211514;28;20481;-80
2024/01/28 08:14:52;;;;;;;16.00;4.43;;;-0.60;99.90;;;;;;4213395;28;20450;-79
2024/01/28 08:16:54;;;;;;;13.77;4.50;;;-0.60;99.90;;;;;;4205863;28;20464;-78
2024/01/28 08:18:57;;;;;;;14.50;4.40;;;-0.50;99.90;;;;;;4195159;28;20485;-79
2024/01/28 08:20:59;;;;;;;13.77;4.80;;;-0.60;99.90;;;;;;4208731;28;20475;-79
2024/01/28 08:23:06;;;;;;;16.27;4.30;;;-0.50;99.90;;;;;;4197517;28;20835;-79
2024/01/28 08:25:08;;;;;;;11.87;4.73;;;-0.50;99.90;;;;;;4194336;28;20975;-79
2024/01/28 08:27:10;;;;;;;14.67;4.37;;;-0.50;99.90;;;;;;4209484;28;20463;-78
2024/01/28 08:29:11;;;;;;;12.83;3.97;;;-0.50;99.90;;;;;;4183854;28;20490;-77
2024/01/28 08:31:14;;;;;;;16.80;4.23;;;-0.40;99.90;;;;;;4207765;28;20459;-78
2024/01/28 08:33:16;;;;;;;11.50;4.50;;;-0.30;99.90;;;;;;4210302;28;20901;-77
2024/01/28 08:35:21;;;;;;;18.47;5.00;;;0.50;99.90;;;;;;4209470;28;20464;-78
2024/01/28 08:37:23;;;;;;;13.90;4.43;;;-0.30;99.90;;;;;;4192169;28;20516;-77
2024/01/28 08:39:26;;;;;;;15.10;4.43;;;-0.20;99.90;;;;;;4193447;28;20494;-78
2024/01/28 08:41:28;;;;;;;16.13;4.57;;;0.30;99.90;;;;;;4210623;28;20463;-78
2024/01/28 08:43:29;;;;;;;15.93;4.10;;;-0.10;99.90;;;;;;4195381;28;20483;-79
2024/01/28 08:45:31;;;;;;;12.33;4.23;;;-0.10;99.90;;;;;;4209797;28;20453;-77
2024/01/28 08:47:33;;;;;;;17.63;4.23;;;0.00;99.90;;;;;;4209722;28;20958;-78
2024/01/28 08:49:35;;;;;;;16.20;4.50;;;0.00;99.90;;;;;;4211363;28;20479;-78
2024/01/28 08:51:38;;;;;;;12.47;4.57;;;0.00;99.90;;;;;;4211994;28;20981;-78
2024/01/28 08:53:40;;;;;;;17.77;4.27;;;0.00;99.90;;;;;;4216748;28;20490;-79
2024/01/28 08:55:45;;;;;;;12.90;4.43;;;0.10;99.90;;;;;;4210957;28;20464;-78
2024/01/28 08:57:46;;;;;;;10.03;4.10;;;0.10;99.90;;;;;;4215270;28;20470;-78
2024/01/28 08:59:50;;;;;;;12.37;3.83;;;0.10;99.90;;;;;;4215368;28;21075;-78
2024/01/28 09:01:51;;;;;;;18.47;4.23;;;0.20;99.90;;;;;;4202652;28;20219;-77
2024/01/28 09:03:53;;;;;;;14.37;3.90;;;0.30;99.90;;;;;;4211410;28;20473;-78
2024/01/28 09:06:00;;;;;;;11.50;3.87;;;0.30;99.90;;;;;;4193541;28;20463;-79
2024/01/28 09:08:03;;;;;;;9.60;3.73;;;0.30;99.90;;;;;;4189351;28;20444;-78
2024/01/28 09:10:06;;;;;;;10.60;3.70;;;0.30;99.90;;;;;;4208973;28;20458;-79
2024/01/28 09:12:10;;;;;;;15.40;4.13;;;0.40;99.90;;;;;;4206569;28;20469;-78
2024/01/28 09:14:12;;;;;;;9.77;4.20;;;0.40;99.90;;;;;;4208284;28;20478;-79
2024/01/28 09:16:14;;;;;;;9.57;3.90;;;0.50;99.90;;;;;;4213644;28;20458;-78
2024/01/28 09:18:16;;;;;;;14.63;3.47;;;0.60;99.90;;;;;;4211065;28;20493;-78
2024/01/28 09:20:18;;;;;;;11.30;3.87;;;0.60;99.90;;;;;;4193148;28;20471;-78
2024/01/28 09:22:19;;;;;;;11.30;3.53;;;0.60;99.90;;;;;;4213299;28;20480;-78
2024/01/28 09:24:21;;;;;;;9.43;3.73;;;0.70;99.90;;;;;;4212484;28;20451;-78
2024/01/28 09:26:23;;;;;;;10.30;3.87;;;1.70;99.90;;;;;;4208770;28;20193;-78
2024/01/28 09:28:25;;;;;;;11.70;3.23;;;0.80;99.90;;;;;;4212452;28;20518;-80
2024/01/28 09:30:27;;;;;;;9.83;4.20;;;0.80;99.90;;;;;;4209874;28;20458;-79
2024/01/28 09:32:28;;;;;;;14.03;5.13;;;0.90;99.90;;;;;;4211229;28;20524;-78
2024/01/28 09:34:30;;;;;;;12.03;4.10;;;0.90;99.90;;;;;;4210941;28;20478;-78
2024/01/28 09:36:32;;;;;;;12.97;3.77;;;1.10;99.90;;;;;;4213679;28;21947;-80
2024/01/28 09:38:34;;;;;;;15.77;4.27;;;1.20;99.90;;;;;;4195544;28;20560;-80
2024/01/28 09:40:36;;;;;;;10.90;3.57;;;1.20;99.90;;;;;;4194523;28;20904;-79
2024/01/28 09:42:46;;;;;;;9.80;3.77;;;1.30;99.90;;;;;;4208369;28;20466;-79
2024/01/28 09:44:49;;;;;;;14.27;3.73;;;1.40;99.90;;;;;;4205644;28;20460;-77
2024/01/28 09:46:53;;;;;;;13.67;3.83;;;1.40;99.90;;;;;;4209615;28;20458;-78
2024/01/28 09:48:55;;;;;;;12.40;3.40;;;1.50;99.90;;;;;;4209179;28;20504;-80
2024/01/28 09:50:57;;;;;;;11.30;3.33;;;1.60;99.90;;;;;;4192237;28;20504;-80
2024/01/28 09:52:59;;;;;;;13.50;3.70;;;1.60;99.90;;;;;;4192803;28;20467;-79
2024/01/28 09:55:01;;;;;;;9.70;3.13;;;1.70;99.90;;;;;;4211015;28;20531;-80
2024/01/28 09:57:04;;;;;;;8.40;2.90;;;1.80;99.90;;;;;;4207568;28;20507;-80
2024/01/28 09:59:09;;;;;;;9.00;2.83;;;1.90;99.90;;;;;;4212025;28;20489;-79
2024/01/28 10:01:13;;;;;;;12.63;2.67;;;1.90;99.90;;;;;;4213453;28;20961;-80
2024/01/28 10:03:15;;;;;;;9.07;2.80;;;2.00;99.90;;;;;;4212534;28;20442;-80
2024/01/28 10:05:17;;;;;;;9.00;2.90;;;2.10;99.90;;;;;;4194538;28;20456;-81
2024/01/28 10:07:19;;;;;;;10.57;2.73;;;2.10;99.90;;;;;;4212829;28;20954;-79
2024/01/28 10:09:20;;;;;;;15.13;5.00;;;2.30;99.90;;;;;;4212310;28;21033;-81
2024/01/28 10:11:22;;;;;;;14.80;3.30;;;2.20;99.90;;;;;;4198153;28;20444;-80
2024/01/28 10:13:24;;;;;;;7.40;2.43;;;2.30;99.90;;;;;;4209712;28;20224;-81
2024/01/28 10:15:27;;;;;;;8.13;2.33;;;2.40;99.90;;;;;;4209148;28;20466;-80
2024/01/28 10:17:29;;;;;;;11.63;2.90;;;2.50;99.90;;;;;;4206358;28;20478;-80
2024/01/28 10:19:31;;;;;;;8.53;2.77;;;2.60;99.90;;;;;;4208586;28;20479;-80
2024/01/28 10:21:32;;;;;;;7.30;2.57;;;2.70;99.90;;;;;;4192283;28;20483;-80
2024/01/28 10:23:36;;;;;;;6.00;2.20;;;2.80;99.90;;;;;;4212941;28;20959;-81
2024/01/28 10:25:38;;;;;;;10.67;2.90;;;3.10;99.90;;;;;;4211899;28;20825;-82
2024/01/28 10:27:40;;;;;;;7.83;2.53;;;2.90;99.90;;;;;;4194329;28;20449;-81
2024/01/28 10:29:44;;;;;;;7.23;2.57;;;2.90;99.90;;;;;;4203428;28;20578;-82
2024/01/28 10:31:47;;;;;;;9.10;2.87;;;3.40;99.90;;;;;;4194278;28;20452;-80